Terminal Aerodrome Forecast
Issued by NWS

Home | Current Version | Previous Version | Text Only | Print | Product List | Glossary On
Versions: 1 2 3 4 5 6 7 8 9 10 11 12 13
256
FTUS45 KTFX 220613 AAA
TAFBZN
TAF AMD
KBZN 220613Z 2206/2312 30009KT P6SM FEW090 FEW180
     FM222100 29007KT P6SM BKN060 OVC090
     FM230000 35006KT P6SM -RA SCT015 OVC060
     FM230900 31009KT 4SM -RASN BKN015 OVC035=

USA.gov is the U.S. government's official web portal to all federal, state and local government web resources and services.